sensor_id;sensor_type;location;lat;lon;timestamp;pressure;altitude;pressure_sealevel;temperature;humidity
13553;BME280;6847;48.830;9.116;2022-07-29T00:01:31;97723.53;;;23.80;44.92
13553;BME280;6847;48.830;9.116;2022-07-29T00:04:18;97723.53;;;23.80;44.86
13553;BME280;6847;48.830;9.116;2022-07-29T00:07:06;97713.66;;;23.79;45.04
13553;BME280;6847;48.830;9.116;2022-07-29T00:09:53;97708.41;;;23.74;45.12
13553;BME280;6847;48.830;9.116;2022-07-29T00:12:39;97706.81;;;23.73;45.29
13553;BME280;6847;48.830;9.116;2022-07-29T00:15:27;97698.09;;;23.71;45.01
13553;BME280;6847;48.830;9.116;2022-07-29T00:18:15;97694.91;;;23.69;45.29
13553;BME280;6847;48.830;9.116;2022-07-29T00:21:00;97694.03;;;23.65;45.61
13553;BME280;6847;48.830;9.116;2022-07-29T00:23:46;97697.97;;;23.64;45.62
13553;BME280;6847;48.830;9.116;2022-07-29T00:26:31;97704.22;;;23.61;45.85
13553;BME280;6847;48.830;9.116;2022-07-29T00:29:18;97701.78;;;23.56;45.97
13553;BME280;6847;48.830;9.116;2022-07-29T00:32:06;97704.97;;;23.58;45.86
13553;BME280;6847;48.830;9.116;2022-07-29T00:34:51;97701.06;;;23.59;45.96
13553;BME280;6847;48.830;9.116;2022-07-29T00:37:55;97697.06;;;23.56;45.98
13553;BME280;6847;48.830;9.116;2022-07-29T00:40:41;97685.03;;;23.49;46.22
13553;BME280;6847;48.830;9.116;2022-07-29T00:43:30;97693.06;;;23.54;46.29
13553;BME280;6847;48.830;9.116;2022-07-29T00:46:15;97689.84;;;23.52;46.20
13553;BME280;6847;48.830;9.116;2022-07-29T00:49:05;97682.72;;;23.51;46.39
13553;BME280;6847;48.830;9.116;2022-07-29T00:51:52;97690.13;;;23.47;46.25
13553;BME280;6847;48.830;9.116;2022-07-29T00:54:39;97689.84;;;23.52;46.40
13553;BME280;6847;48.830;9.116;2022-07-29T00:57:26;97684.31;;;23.52;46.40
13553;BME280;6847;48.830;9.116;2022-07-29T01:00:16;97624.47;;;23.17;46.78
13553;BME280;6847;48.830;9.116;2022-07-29T01:03:06;97666.44;;;23.46;46.91
13553;BME280;6847;48.830;9.116;2022-07-29T01:05:54;97661.25;;;23.44;46.96
13553;BME280;6847;48.830;9.116;2022-07-29T01:08:43;97634.19;;;23.31;46.96
13553;BME280;6847;48.830;9.116;2022-07-29T01:11:28;97665.25;;;23.47;47.07
13553;BME280;6847;48.830;9.116;2022-07-29T01:14:15;97661.63;;;23.43;47.07
13553;BME280;6847;48.830;9.116;2022-07-29T01:17:06;97654.81;;;23.37;47.42
13553;BME280;6847;48.830;9.116;2022-07-29T01:20:02;97662.66;;;23.35;47.27
13553;BME280;6847;48.830;9.116;2022-07-29T01:23:05;97661.88;;;23.34;47.44
13553;BME280;6847;48.830;9.116;2022-07-29T01:26:16;97662.59;;;23.31;47.67
13553;BME280;6847;48.830;9.116;2022-07-29T01:29:16;97666.75;;;23.21;47.74
13553;BME280;6847;48.830;9.116;2022-07-29T01:32:10;97663.25;;;23.24;47.77
13553;BME280;6847;48.830;9.116;2022-07-29T01:35:02;97642.47;;;23.11;47.88
13553;BME280;6847;48.830;9.116;2022-07-29T01:37:52;97662.47;;;23.24;47.75
13553;BME280;6847;48.830;9.116;2022-07-29T01:40:45;97671.09;;;23.22;47.95
13553;BME280;6847;48.830;9.116;2022-07-29T01:43:37;97664.41;;;23.23;48.10
13553;BME280;6847;48.830;9.116;2022-07-29T01:46:31;97645.41;;;23.18;47.95
13553;BME280;6847;48.830;9.116;2022-07-29T01:49:21;97657.69;;;23.21;48.17
13553;BME280;6847;48.830;9.116;2022-07-29T01:52:13;97641.75;;;23.14;48.12
13553;BME280;6847;48.830;9.116;2022-07-29T01:55:04;97658.91;;;23.23;48.22
13553;BME280;6847;48.830;9.116;2022-07-29T01:57:54;97654.53;;;23.22;48.55
13553;BME280;6847;48.830;9.116;2022-07-29T02:00:44;97659.66;;;23.20;48.43
13553;BME280;6847;48.830;9.116;2022-07-29T02:03:41;97653.69;;;23.18;48.57
13553;BME280;6847;48.830;9.116;2022-07-29T02:06:31;97652.09;;;23.17;48.51
13553;BME280;6847;48.830;9.116;2022-07-29T02:09:20;97645.84;;;23.20;48.54
13553;BME280;6847;48.830;9.116;2022-07-29T02:12:11;97629.88;;;23.10;48.72
13553;BME280;6847;48.830;9.116;2022-07-29T02:15:03;97636.25;;;23.14;48.64
13553;BME280;6847;48.830;9.116;2022-07-29T02:17:53;97648.22;;;23.22;48.66
13553;BME280;6847;48.830;9.116;2022-07-29T02:20:44;97641.53;;;23.23;48.68
13553;BME280;6847;48.830;9.116;2022-07-29T02:23:35;97640.00;;;23.25;48.85
13553;BME280;6847;48.830;9.116;2022-07-29T02:26:23;97636.50;;;23.29;48.69
13553;BME280;6847;48.830;9.116;2022-07-29T02:29:11;97628.06;;;23.21;48.60
13553;BME280;6847;48.830;9.116;2022-07-29T02:31:58;97621.63;;;23.14;48.94
13553;BME280;6847;48.830;9.116;2022-07-29T02:34:50;97639.56;;;23.23;49.02
13553;BME280;6847;48.830;9.116;2022-07-29T02:37:38;97650.59;;;23.23;48.85
13553;BME280;6847;48.830;9.116;2022-07-29T02:40:55;97647.41;;;23.21;48.99
13553;BME280;6847;48.830;9.116;2022-07-29T02:43:43;97650.16;;;23.21;48.97
13553;BME280;6847;48.830;9.116;2022-07-29T02:46:31;97634.72;;;23.17;49.08
13553;BME280;6847;48.830;9.116;2022-07-29T02:49:31;97648.16;;;23.18;49.24
13553;BME280;6847;48.830;9.116;2022-07-29T02:52:24;97644.09;;;23.12;49.31
13553;BME280;6847;48.830;9.116;2022-07-29T02:55:18;97654.50;;;23.19;49.40
13553;BME280;6847;48.830;9.116;2022-07-29T02:58:13;97635.44;;;23.14;49.12
13553;BME280;6847;48.830;9.116;2022-07-29T03:01:03;97624.19;;;23.03;49.25
13553;BME280;6847;48.830;9.116;2022-07-29T03:03:52;97653.72;;;23.22;49.29
13553;BME280;6847;48.830;9.116;2022-07-29T03:06:40;97652.09;;;23.17;49.58
13553;BME280;6847;48.830;9.116;2022-07-29T03:09:29;97657.59;;;23.17;49.58
13553;BME280;6847;48.830;9.116;2022-07-29T03:15:29;97648.88;;;23.15;49.66
13553;BME280;6847;48.830;9.116;2022-07-29T03:18:16;97643.94;;;23.05;49.81
13553;BME280;6847;48.830;9.116;2022-07-29T03:21:02;97654.41;;;23.15;49.77
13553;BME280;6847;48.830;9.116;2022-07-29T03:23:49;97659.22;;;23.18;49.72
13553;BME280;6847;48.830;9.116;2022-07-29T03:26:35;97655.28;;;23.19;49.78
13553;BME280;6847;48.830;9.116;2022-07-29T03:29:22;97644.03;;;23.09;50.01
13553;BME280;6847;48.830;9.116;2022-07-29T03:32:08;97661.44;;;23.13;50.02
13553;BME280;6847;48.830;9.116;2022-07-29T03:34:53;97657.03;;;23.08;49.81
13553;BME280;6847;48.830;9.116;2022-07-29T03:37:38;97653.41;;;23.04;50.14
13553;BME280;6847;48.830;9.116;2022-07-29T03:40:27;97614.88;;;22.73;50.03
13553;BME280;6847;48.830;9.116;2022-07-29T03:43:16;97663.94;;;22.99;50.09
13553;BME280;6847;48.830;9.116;2022-07-29T03:46:06;97666.28;;;22.97;50.23
13553;BME280;6847;48.830;9.116;2022-07-29T03:48:55;97669.81;;;22.97;50.33
13553;BME280;6847;48.830;9.116;2022-07-29T03:51:43;97668.66;;;22.98;50.30
13553;BME280;6847;48.830;9.116;2022-07-29T03:54:31;97663.50;;;22.97;50.67
13553;BME280;6847;48.830;9.116;2022-07-29T03:57:18;97668.94;;;22.93;50.60
13553;BME280;6847;48.830;9.116;2022-07-29T04:00:06;97643.03;;;22.78;50.61
13553;BME280;6847;48.830;9.116;2022-07-29T04:02:53;97650.50;;;22.78;50.85
13553;BME280;6847;48.830;9.116;2022-07-29T04:05:39;97664.00;;;22.83;50.75
13553;BME280;6847;48.830;9.116;2022-07-29T04:08:25;97658.47;;;22.83;50.78
13553;BME280;6847;48.830;9.116;2022-07-29T04:11:12;97657.69;;;22.82;51.13
13553;BME280;6847;48.830;9.116;2022-07-29T04:13:57;97664.00;;;22.83;50.79
13553;BME280;6847;48.830;9.116;2022-07-29T04:16:43;97658.94;;;22.85;50.79
13553;BME280;6847;48.830;9.116;2022-07-29T04:19:29;97660.09;;;22.84;50.90
13553;BME280;6847;48.830;9.116;2022-07-29T04:22:15;97673.88;;;22.84;50.83
13553;BME280;6847;48.830;9.116;2022-07-29T04:25:00;97660.09;;;22.84;50.91
13553;BME280;6847;48.830;9.116;2022-07-29T04:27:45;97654.56;;;22.84;50.96
13553;BME280;6847;48.830;9.116;2022-07-29T04:30:44;97659.06;;;22.92;51.08
13553;BME280;6847;48.830;9.116;2022-07-29T04:33:30;97659.44;;;22.91;51.18
13553;BME280;6847;48.830;9.116;2022-07-29T04:36:17;97679.19;;;22.93;51.14
13553;BME280;6847;48.830;9.116;2022-07-29T04:39:02;97668.94;;;22.93;51.07
13553;BME280;6847;48.830;9.116;2022-07-29T04:41:50;97670.53;;;22.94;51.09
13553;BME280;6847;48.830;9.116;2022-07-29T04:44:36;97660.66;;;22.93;51.10
13553;BME280;6847;48.830;9.116;2022-07-29T04:47:21;97670.75;;;23.05;51.34
13553;BME280;6847;48.830;9.116;2022-07-29T04:50:08;97659.81;;;23.08;50.92
13553;BME280;6847;48.830;9.116;2022-07-29T04:52:56;97667.41;;;23.15;51.23
13553;BME280;6847;48.830;9.116;2022-07-29T04:55:41;97660.81;;;23.19;51.16
13553;BME280;6847;48.830;9.116;2022-07-29T04:58:26;97675.19;;;23.29;51.15
13553;BME280;6847;48.830;9.116;2022-07-29T05:01:11;97659.34;;;23.25;51.31
13553;BME280;6847;48.830;9.116;2022-07-29T05:03:59;97670.22;;;23.38;51.12
13553;BME280;6847;48.830;9.116;2022-07-29T05:06:44;97667.16;;;23.43;51.18
13553;BME280;6847;48.830;9.116;2022-07-29T05:09:31;97670.34;;;23.45;51.35
13553;BME280;6847;48.830;9.116;2022-07-29T05:12:18;97670.94;;;23.54;51.30
13553;BME280;6847;48.830;9.116;2022-07-29T05:15:06;97671.75;;;23.54;51.40
13553;BME280;6847;48.830;9.116;2022-07-29T05:17:52;97680.53;;;23.60;51.29
13553;BME280;6847;48.830;9.116;2022-07-29T05:20:37;97676.78;;;23.72;51.14
13553;BME280;6847;48.830;9.116;2022-07-29T05:23:24;97677.09;;;23.89;51.11
13553;BME280;6847;48.830;9.116;2022-07-29T05:26:12;97674.56;;;24.04;50.79
13553;BME280;6847;48.830;9.116;2022-07-29T05:28:58;97683.09;;;24.18;50.79
13553;BME280;6847;48.830;9.116;2022-07-29T05:31:43;97682.44;;;24.24;50.88
13553;BME280;6847;48.830;9.116;2022-07-29T05:34:28;97685.63;;;24.26;50.70
13553;BME280;6847;48.830;9.116;2022-07-29T05:37:16;97684.56;;;24.34;50.88
13553;BME280;6847;48.830;9.116;2022-07-29T05:40:01;97679.91;;;24.42;50.67
13553;BME280;6847;48.830;9.116;2022-07-29T05:42:48;97692.38;;;24.55;50.71
13553;BME280;6847;48.830;9.116;2022-07-29T05:45:35;97692.47;;;24.62;50.74
13553;BME280;6847;48.830;9.116;2022-07-29T05:48:21;97656.41;;;24.55;50.42
13553;BME280;6847;48.830;9.116;2022-07-29T05:51:06;97671.28;;;24.74;50.43
13553;BME280;6847;48.830;9.116;2022-07-29T05:53:51;97632.31;;;24.59;50.17
13553;BME280;6847;48.830;9.116;2022-07-29T05:56:38;97662.38;;;24.91;50.18
13553;BME280;6847;48.830;9.116;2022-07-29T05:59:31;97681.44;;;25.26;49.88
13553;BME280;6847;48.830;9.116;2022-07-29T06:02:17;97700.78;;;25.56;49.83
13553;BME280;6847;48.830;9.116;2022-07-29T06:05:03;97699.41;;;25.76;49.44
13553;BME280;6847;48.830;9.116;2022-07-29T06:07:48;97706.31;;;25.96;49.30
13553;BME280;6847;48.830;9.116;2022-07-29T06:10:34;97693.44;;;26.14;49.18
13553;BME280;6847;48.830;9.116;2022-07-29T06:13:20;97692.38;;;26.30;49.33
13553;BME280;6847;48.830;9.116;2022-07-29T06:16:06;97711.97;;;26.54;48.93
13553;BME280;6847;48.830;9.116;2022-07-29T06:18:52;97719.25;;;26.73;49.19
13553;BME280;6847;48.830;9.116;2022-07-29T06:21:41;97711.34;;;26.79;48.54
13553;BME280;6847;48.830;9.116;2022-07-29T06:24:27;97710.66;;;26.93;48.91
13553;BME280;6847;48.830;9.116;2022-07-29T06:27:12;97719.44;;;27.02;48.97
13553;BME280;6847;48.830;9.116;2022-07-29T06:29:58;97672.81;;;26.77;48.82
13553;BME280;6847;48.830;9.116;2022-07-29T06:32:45;97721.81;;;27.07;48.92
13553;BME280;6847;48.830;9.116;2022-07-29T06:35:33;97680.38;;;26.73;48.61
13553;BME280;6847;48.830;9.116;2022-07-29T06:38:19;97719.41;;;26.98;48.73
13553;BME280;6847;48.830;9.116;2022-07-29T06:41:08;97717.09;;;27.11;48.54
13553;BME280;6847;48.830;9.116;2022-07-29T06:43:56;97732.63;;;27.26;48.20
13553;BME280;6847;48.830;9.116;2022-07-29T06:46:41;97719.56;;;27.30;48.36
13553;BME280;6847;48.830;9.116;2022-07-29T06:49:28;97733.53;;;27.51;48.22
13553;BME280;6847;48.830;9.116;2022-07-29T06:52:16;97722.03;;;27.56;48.01
13553;BME280;6847;48.830;9.116;2022-07-29T06:55:01;97726.84;;;27.67;47.81
13553;BME280;6847;48.830;9.116;2022-07-29T06:57:50;97718.91;;;27.83;47.70
13553;BME280;6847;48.830;9.116;2022-07-29T07:00:35;97736.81;;;28.03;47.44
13553;BME280;6847;48.830;9.116;2022-07-29T07:03:20;97735.28;;;28.27;47.25
13553;BME280;6847;48.830;9.116;2022-07-29T07:06:07;97703.84;;;28.23;46.90
13553;BME280;6847;48.830;9.116;2022-07-29T07:08:53;97738.06;;;28.48;46.95
13553;BME280;6847;48.830;9.116;2022-07-29T07:11:38;97736.44;;;28.51;47.06
13553;BME280;6847;48.830;9.116;2022-07-29T07:14:26;97740.03;;;28.51;46.79
13553;BME280;6847;48.830;9.116;2022-07-29T07:17:11;97739.63;;;28.67;46.71
13553;BME280;6847;48.830;9.116;2022-07-29T07:19:57;97759.13;;;28.95;46.15
13553;BME280;6847;48.830;9.116;2022-07-29T07:22:47;97734.75;;;29.10;45.98
13553;BME280;6847;48.830;9.116;2022-07-29T07:25:33;97742.66;;;29.43;45.63
13553;BME280;6847;48.830;9.116;2022-07-29T07:28:20;97751.72;;;29.65;45.27
13553;BME280;6847;48.830;9.116;2022-07-29T07:31:06;97755.25;;;29.73;45.26
13553;BME280;6847;48.830;9.116;2022-07-29T07:33:53;97760.78;;;29.84;45.03
13553;BME280;6847;48.830;9.116;2022-07-29T07:36:38;97767.50;;;29.90;44.97
13553;BME280;6847;48.830;9.116;2022-07-29T07:39:26;97769.50;;;29.96;45.12
13553;BME280;6847;48.830;9.116;2022-07-29T07:42:14;97679.69;;;29.46;44.83
13553;BME280;6847;48.830;9.116;2022-07-29T07:45:03;97678.47;;;29.47;45.15
13553;BME280;6847;48.830;9.116;2022-07-29T07:47:49;97771.34;;;30.17;44.72
13553;BME280;6847;48.830;9.116;2022-07-29T07:50:35;97746.97;;;30.25;44.83
13553;BME280;6847;48.830;9.116;2022-07-29T07:53:21;97764.31;;;30.46;44.38
13553;BME280;6847;48.830;9.116;2022-07-29T07:56:08;97768.63;;;30.62;43.95
13553;BME280;6847;48.830;9.116;2022-07-29T07:58:55;97770.91;;;30.74;44.20
13553;BME280;6847;48.830;9.116;2022-07-29T08:01:42;97756.03;;;30.84;43.66
13553;BME280;6847;48.830;9.116;2022-07-29T08:04:27;97733.25;;;30.85;43.59
13553;BME280;6847;48.830;9.116;2022-07-29T08:07:13;97773.50;;;31.33;43.15
13553;BME280;6847;48.830;9.116;2022-07-29T08:09:58;97683.28;;;30.91;42.75
13553;BME280;6847;48.830;9.116;2022-07-29T08:12:46;97773.75;;;31.45;43.27
13553;BME280;6847;48.830;9.116;2022-07-29T08:15:33;97762.22;;;31.40;42.85
13553;BME280;6847;48.830;9.116;2022-07-29T08:18:18;97781.63;;;31.54;43.13
13553;BME280;6847;48.830;9.116;2022-07-29T08:21:04;97779.53;;;31.65;42.97
13553;BME280;6847;48.830;9.116;2022-07-29T08:23:50;97770.97;;;32.33;42.17
13553;BME280;6847;48.830;9.116;2022-07-29T08:27:02;97782.41;;;34.63;38.92
13553;BME280;6847;48.830;9.116;2022-07-29T08:29:48;97774.75;;;36.59;36.20
13553;BME280;6847;48.830;9.116;2022-07-29T08:32:36;97778.28;;;37.32;35.52
13553;BME280;6847;48.830;9.116;2022-07-29T08:35:22;97756.44;;;37.67;35.22
13553;BME280;6847;48.830;9.116;2022-07-29T08:38:09;97790.41;;;38.78;34.40
13553;BME280;6847;48.830;9.116;2022-07-29T08:40:56;97784.97;;;40.35;32.37
13553;BME280;6847;48.830;9.116;2022-07-29T08:43:43;97789.22;;;41.88;30.75
13553;BME280;6847;48.830;9.116;2022-07-29T08:46:31;97788.00;;;43.09;29.99
13553;BME280;6847;48.830;9.116;2022-07-29T08:49:18;97804.69;;;43.36;30.04
13553;BME280;6847;48.830;9.116;2022-07-29T08:52:04;97802.41;;;43.92;29.33
13553;BME280;6847;48.830;9.116;2022-07-29T08:54:52;97790.16;;;44.06;29.30
13553;BME280;6847;48.830;9.116;2022-07-29T08:57:40;97789.56;;;44.65;28.58
13553;BME280;6847;48.830;9.116;2022-07-29T09:00:26;97800.81;;;45.28;27.75
13553;BME280;6847;48.830;9.116;2022-07-29T09:03:19;97794.41;;;45.50;27.51
13553;BME280;6847;48.830;9.116;2022-07-29T09:06:05;97792.50;;;45.30;27.48
13553;BME280;6847;48.830;9.116;2022-07-29T09:08:52;97793.53;;;44.79;27.79
13553;BME280;6847;48.830;9.116;2022-07-29T09:11:38;97807.25;;;44.06;28.11
13553;BME280;6847;48.830;9.116;2022-07-29T09:14:24;97798.13;;;42.90;28.85
13553;BME280;6847;48.830;9.116;2022-07-29T09:17:10;97753.34;;;42.75;28.35
13553;BME280;6847;48.830;9.116;2022-07-29T09:20:08;97799.16;;;43.53;27.23
13553;BME280;6847;48.830;9.116;2022-07-29T09:22:54;97793.59;;;43.64;27.46
13553;BME280;6847;48.830;9.116;2022-07-29T09:25:42;97799.38;;;43.49;27.52
13553;BME280;6847;48.830;9.116;2022-07-29T09:28:27;97787.88;;;43.90;26.84
13553;BME280;6847;48.830;9.116;2022-07-29T09:31:12;97799.25;;;44.10;26.45
13553;BME280;6847;48.830;9.116;2022-07-29T09:33:58;97772.31;;;44.17;26.33
13553;BME280;6847;48.830;9.116;2022-07-29T09:36:48;97800.09;;;44.90;25.37
13553;BME280;6847;48.830;9.116;2022-07-29T09:39:36;97781.66;;;45.56;24.93
13553;BME280;6847;48.830;9.116;2022-07-29T09:42:28;97794.00;;;45.90;24.67
13553;BME280;6847;48.830;9.116;2022-07-29T09:45:27;97782.66;;;45.42;24.92
13553;BME280;6847;48.830;9.116;2022-07-29T09:48:16;97793.13;;;45.62;24.92
13553;BME280;6847;48.830;9.116;2022-07-29T09:51:05;97784.13;;;46.30;24.43
13553;BME280;6847;48.830;9.116;2022-07-29T09:54:21;97782.53;;;46.46;23.73
13553;BME280;6847;48.830;9.116;2022-07-29T09:57:08;97784.63;;;46.18;24.39
13553;BME280;6847;48.830;9.116;2022-07-29T09:59:57;97793.75;;;46.27;24.23
13553;BME280;6847;48.830;9.116;2022-07-29T10:02:44;97778.94;;;45.14;24.80
13553;BME280;6847;48.830;9.116;2022-07-29T10:05:29;97775.97;;;42.99;26.80
13553;BME280;6847;48.830;9.116;2022-07-29T10:08:25;97780.00;;;40.78;28.60
13553;BME280;6847;48.830;9.116;2022-07-29T10:11:13;97772.81;;;38.92;29.80
13553;BME280;6847;48.830;9.116;2022-07-29T10:14:02;97763.06;;;37.73;30.19
13553;BME280;6847;48.830;9.116;2022-07-29T10:16:48;97756.47;;;36.76;30.51
13553;BME280;6847;48.830;9.116;2022-07-29T10:19:35;97744.97;;;35.82;31.01
13553;BME280;6847;48.830;9.116;2022-07-29T10:22:21;97762.97;;;35.30;31.22
13553;BME280;6847;48.830;9.116;2022-07-29T10:25:09;97757.19;;;34.76;31.70
13553;BME280;6847;48.830;9.116;2022-07-29T10:27:56;97739.19;;;34.25;31.88
13553;BME280;6847;48.830;9.116;2022-07-29T10:30:45;97757.53;;;33.93;31.75
13553;BME280;6847;48.830;9.116;2022-07-29T10:33:44;97759.09;;;33.58;31.95
13553;BME280;6847;48.830;9.116;2022-07-29T10:36:45;97709.91;;;32.91;32.20
13553;BME280;6847;48.830;9.116;2022-07-29T10:39:48;97743.19;;;32.65;32.35
13553;BME280;6847;48.830;9.116;2022-07-29T10:42:40;97747.03;;;32.28;32.55
13553;BME280;6847;48.830;9.116;2022-07-29T10:45:29;97743.09;;;31.95;32.65
13553;BME280;6847;48.830;9.116;2022-07-29T10:48:16;97741.91;;;31.66;32.57
13553;BME280;6847;48.830;9.116;2022-07-29T10:51:04;97742.75;;;31.33;33.10
13553;BME280;6847;48.830;9.116;2022-07-29T10:53:53;97728.75;;;30.95;32.94
13553;BME280;6847;48.830;9.116;2022-07-29T10:56:38;97672.59;;;30.41;33.02
13553;BME280;6847;48.830;9.116;2022-07-29T10:59:25;97745.00;;;30.66;33.14
13553;BME280;6847;48.830;9.116;2022-07-29T11:02:47;97739.56;;;30.48;33.35
13553;BME280;6847;48.830;9.116;2022-07-29T11:05:53;97741.31;;;30.28;33.71
13553;BME280;6847;48.830;9.116;2022-07-29T11:08:40;97761.03;;;30.10;33.84
13553;BME280;6847;48.830;9.116;2022-07-29T11:11:32;97757.53;;;29.92;34.66
13553;BME280;6847;48.830;9.116;2022-07-29T11:14:55;97763.34;;;29.46;35.08
13553;BME280;6847;48.830;9.116;2022-07-29T11:18:09;97753.16;;;28.97;35.49
13553;BME280;6847;48.830;9.116;2022-07-29T11:20:58;97742.81;;;28.69;35.65
13553;BME280;6847;48.830;9.116;2022-07-29T11:23:45;97758.72;;;28.61;35.90
13553;BME280;6847;48.830;9.116;2022-07-29T11:26:31;97755.97;;;28.54;35.89
13553;BME280;6847;48.830;9.116;2022-07-29T11:29:19;97763.53;;;28.54;36.13
13553;BME280;6847;48.830;9.116;2022-07-29T11:32:10;97758.75;;;28.47;36.07
13553;BME280;6847;48.830;9.116;2022-07-29T11:35:16;97747.19;;;28.42;36.40
13553;BME280;6847;48.830;9.116;2022-07-29T11:38:24;97770.69;;;28.69;36.40
13553;BME280;6847;48.830;9.116;2022-07-29T11:41:26;97613.97;;;27.73;36.21
13553;BME280;6847;48.830;9.116;2022-07-29T11:44:15;97763.09;;;28.77;36.52
13553;BME280;6847;48.830;9.116;2022-07-29T11:47:01;97761.53;;;28.86;36.59
13553;BME280;6847;48.830;9.116;2022-07-29T11:49:47;97761.00;;;29.30;36.52
13553;BME280;6847;48.830;9.116;2022-07-29T11:52:36;97765.72;;;29.51;36.55
13553;BME280;6847;48.830;9.116;2022-07-29T11:55:28;97760.94;;;29.55;36.33
13553;BME280;6847;48.830;9.116;2022-07-29T11:58:21;97760.47;;;29.67;36.28
13553;BME280;6847;48.830;9.116;2022-07-29T12:01:06;97735.38;;;29.67;36.42
13553;BME280;6847;48.830;9.116;2022-07-29T12:04:02;97745.94;;;29.97;36.61
13553;BME280;6847;48.830;9.116;2022-07-29T12:06:50;97758.94;;;30.22;36.20
13553;BME280;6847;48.830;9.116;2022-07-29T12:09:37;97707.97;;;30.07;36.07
13553;BME280;6847;48.830;9.116;2022-07-29T12:12:23;97750.75;;;30.48;36.07
13553;BME280;6847;48.830;9.116;2022-07-29T12:15:16;97742.75;;;30.50;36.82
13553;BME280;6847;48.830;9.116;2022-07-29T12:18:13;97751.91;;;30.51;36.54
13553;BME280;6847;48.830;9.116;2022-07-29T12:21:00;97738.81;;;30.44;36.73
13553;BME280;6847;48.830;9.116;2022-07-29T12:23:52;97742.59;;;30.20;37.33
13553;BME280;6847;48.830;9.116;2022-07-29T12:26:50;97740.03;;;29.81;37.63
13553;BME280;6847;48.830;9.116;2022-07-29T12:29:35;97740.16;;;29.60;37.92
13553;BME280;6847;48.830;9.116;2022-07-29T12:32:21;97753.00;;;29.47;37.97
13553;BME280;6847;48.830;9.116;2022-07-29T12:35:09;97749.03;;;29.30;38.02
13553;BME280;6847;48.830;9.116;2022-07-29T12:37:57;97720.84;;;29.06;38.60
13553;BME280;6847;48.830;9.116;2022-07-29T12:40:48;97703.03;;;28.79;38.53
13553;BME280;6847;48.830;9.116;2022-07-29T12:43:37;97754.72;;;28.94;38.58
13553;BME280;6847;48.830;9.116;2022-07-29T12:46:24;97759.13;;;28.74;38.80
13553;BME280;6847;48.830;9.116;2022-07-29T12:49:21;97732.50;;;28.45;39.31
13553;BME280;6847;48.830;9.116;2022-07-29T12:52:26;97749.63;;;28.40;39.46
13553;BME280;6847;48.830;9.116;2022-07-29T12:55:13;97724.50;;;28.01;39.62
13553;BME280;6847;48.830;9.116;2022-07-29T12:57:58;97756.31;;;28.03;39.92
13553;BME280;6847;48.830;9.116;2022-07-29T13:00:59;97745.16;;;27.89;40.00
13553;BME280;6847;48.830;9.116;2022-07-29T13:03:49;97755.09;;;27.86;39.98
13553;BME280;6847;48.830;9.116;2022-07-29T13:06:37;97761.81;;;27.82;40.01
13553;BME280;6847;48.830;9.116;2022-07-29T13:09:36;97767.81;;;27.80;40.04
13553;BME280;6847;48.830;9.116;2022-07-29T13:12:32;97765.78;;;27.74;39.98
13553;BME280;6847;48.830;9.116;2022-07-29T13:15:29;97768.97;;;27.72;40.04
13553;BME280;6847;48.830;9.116;2022-07-29T13:18:27;97771.75;;;27.76;39.85
13553;BME280;6847;48.830;9.116;2022-07-29T13:21:14;97760.22;;;27.70;39.88
13553;BME280;6847;48.830;9.116;2022-07-29T13:24:00;97773.72;;;27.68;39.83
13553;BME280;6847;48.830;9.116;2022-07-29T13:26:46;97775.69;;;27.64;40.03
13553;BME280;6847;48.830;9.116;2022-07-29T13:29:34;97780.88;;;27.69;40.16
13553;BME280;6847;48.830;9.116;2022-07-29T13:32:23;97782.88;;;27.76;39.97
13553;BME280;6847;48.830;9.116;2022-07-29T13:35:10;97777.75;;;27.81;39.95
13553;BME280;6847;48.830;9.116;2022-07-29T13:37:57;97780.94;;;27.94;39.90
13553;BME280;6847;48.830;9.116;2022-07-29T13:40:43;97769.84;;;28.15;39.63
13553;BME280;6847;48.830;9.116;2022-07-29T13:43:30;97762.31;;;28.62;38.98
13553;BME280;6847;48.830;9.116;2022-07-29T13:46:16;97760.19;;;29.30;38.64
13553;BME280;6847;48.830;9.116;2022-07-29T13:49:04;97764.59;;;30.11;37.62
13553;BME280;6847;48.830;9.116;2022-07-29T13:51:50;97772.81;;;30.84;37.48
13553;BME280;6847;48.830;9.116;2022-07-29T13:54:42;97759.06;;;31.00;37.76
13553;BME280;6847;48.830;9.116;2022-07-29T13:57:28;97758.06;;;31.21;37.14
13553;BME280;6847;48.830;9.116;2022-07-29T14:00:18;97735.72;;;31.17;37.49
13553;BME280;6847;48.830;9.116;2022-07-29T14:03:05;97752.34;;;31.32;37.86
13553;BME280;6847;48.830;9.116;2022-07-29T14:05:59;97722.13;;;31.19;37.80
13553;BME280;6847;48.830;9.116;2022-07-29T14:08:44;97742.63;;;31.43;37.31
13553;BME280;6847;48.830;9.116;2022-07-29T14:11:31;97741.84;;;31.39;37.64
13553;BME280;6847;48.830;9.116;2022-07-29T14:14:17;97741.16;;;31.32;37.48
13553;BME280;6847;48.830;9.116;2022-07-29T14:17:02;97739.47;;;31.38;37.60
13553;BME280;6847;48.830;9.116;2022-07-29T14:19:53;97740.66;;;31.40;37.72
13553;BME280;6847;48.830;9.116;2022-07-29T14:22:40;97733.03;;;31.41;37.49
13553;BME280;6847;48.830;9.116;2022-07-29T14:25:28;97737.94;;;31.33;37.54
13553;BME280;6847;48.830;9.116;2022-07-29T14:28:16;97745.19;;;31.27;37.26
13553;BME280;6847;48.830;9.116;2022-07-29T14:31:02;97736.50;;;31.18;37.70
13553;BME280;6847;48.830;9.116;2022-07-29T14:33:52;97737.19;;;31.29;36.92
13553;BME280;6847;48.830;9.116;2022-07-29T14:36:37;97736.22;;;31.43;37.12
13553;BME280;6847;48.830;9.116;2022-07-29T14:39:27;97744.13;;;31.48;36.69
13553;BME280;6847;48.830;9.116;2022-07-29T14:42:13;97742.56;;;31.47;36.58
13553;BME280;6847;48.830;9.116;2022-07-29T14:45:02;97706.81;;;31.27;36.63
13553;BME280;6847;48.830;9.116;2022-07-29T14:47:47;97740.00;;;31.59;36.45
13553;BME280;6847;48.830;9.116;2022-07-29T14:50:33;97743.47;;;31.71;36.41
13553;BME280;6847;48.830;9.116;2022-07-29T14:53:19;97743.06;;;31.72;36.20
13553;BME280;6847;48.830;9.116;2022-07-29T14:56:10;97743.66;;;31.83;36.13
13553;BME280;6847;48.830;9.116;2022-07-29T14:58:58;97748.44;;;31.86;36.07
13553;BME280;6847;48.830;9.116;2022-07-29T15:01:48;97750.97;;;31.77;36.12
13553;BME280;6847;48.830;9.116;2022-07-29T15:04:33;97739.88;;;31.70;36.33
13553;BME280;6847;48.830;9.116;2022-07-29T15:07:20;97753.63;;;31.54;36.05
13553;BME280;6847;48.830;9.116;2022-07-29T15:10:06;97746.66;;;31.39;36.06